M I D A S
Marine Information and Data Acquisition System
Tripno 1503 of the Zeeleeuw from 2008-06-13 04:43:49 to 2008-06-13 13:35:45
Back to CruiseResearch ActivitiesStationsMapUnderway DataData graphs

EquipmentUnitsComment
TimeDGPSUTC
LatitudeDGPSDM.mWGS84
LongitudeDGPSDM.mWGS84
HeadingGyrodeg 
SOGDGPSknotsSpeed over ground
COGDGPSdegCourse over ground
DepthEcho soundermeters200 kHz
Missing or incorrect values are displayed as -999
Navigation data collected by the RV Zeeleeuw from 2008-06-13 04:12:45 to 2008-06-13 13:36:31
Time Latitude Longitude Heading SOG COG Depth
2008-06-13 04:13:50 51°13.64 2°55.986 113.4 3.6 295 -999
2008-06-13 04:14:49 51°13.666 2°55.88 113.6 4.5 292 -999
2008-06-13 04:15:49 51°13.696 2°55.77 114.1 3.7 294 -999
2008-06-13 04:16:49 51°13.698 2°55.753 80.8 1.4 258 13.2
2008-06-13 04:17:49 51°13.7 2°55.742 44.6 1.7 45 4.7
2008-06-13 04:18:49 51°13.685 2°55.737 26 1.2 203 -999
2008-06-13 04:19:49 51°13.731 2°55.714 334 5.1 333 10.1
2008-06-13 04:20:49 51°13.829 2°55.634 334.4 7.4 333 9.9
2008-06-13 04:21:49 51°13.949 2°55.541 335.7 9 336 10.1
2008-06-13 04:22:49 51°14.094 2°55.433 336.9 9.8 334 10.3
2008-06-13 04:23:49 51°14.236 2°55.292 322.9 10.8 319 -999
2008-06-13 04:24:50 51°14.366 2°55.068 313.5 11.6 313 -999
2008-06-13 04:25:49 51°14.505 2°54.856 323.9 11.8 316 9.8
2008-06-13 04:26:49 51°14.627 2°54.613 310.7 11.6 304 9.5
2008-06-13 04:27:49 51°14.721 2°54.342 296.8 11.7 289 10
2008-06-13 04:28:50 51°14.745 2°54.017 278.8 12.2 274 9.4
2008-06-13 04:29:49 51°14.767 2°53.701 282.8 12.1 280 10.4
2008-06-13 04:30:50 51°14.798 2°53.378 283.9 12.2 276 10.6
2008-06-13 04:31:49 51°14.819 2°53.062 280.1 12.1 276 9.6
2008-06-13 04:32:49 51°14.84 2°52.742 280 12.2 275 9.7
2008-06-13 04:33:50 51°14.86 2°52.415 280.6 12.2 277 9.9
2008-06-13 04:34:50 51°14.875 2°52.093 276.5 12.2 274 10.1
2008-06-13 04:35:50 51°14.881 2°51.767 275.1 12.3 271 10.5
2008-06-13 04:36:50 51°14.882 2°51.438 275 12.4 271 11.1
2008-06-13 04:37:50 51°14.886 2°51.106 276.3 12.5 272 11.4
2008-06-13 04:38:50 51°14.892 2°50.776 276.9 12.4 270 11.7
2008-06-13 04:39:50 51°14.895 2°50.445 276 12.5 271 11.8
2008-06-13 04:40:50 51°14.899 2°50.114 276.9 12.6 271 12.3
2008-06-13 04:41:50 51°14.904 2°49.781 276.2 12.3 270 12.4
2008-06-13 04:42:50 51°14.911 2°49.453 275.8 12.4 277 13
2008-06-13 04:43:50 51°14.915 2°49.127 276.9 12.4 272 13
2008-06-13 04:44:50 51°14.921 2°48.799 276.4 12.3 273 12.4
2008-06-13 04:45:50 51°14.925 2°48.472 275.1 12.4 269 12.2
2008-06-13 04:46:50 51°14.932 2°48.148 276.3 12.1 274 13.2
2008-06-13 04:47:50 51°14.94 2°47.823 277.2 12.2 270 13.1
2008-06-13 04:48:50 51°14.947 2°47.499 276.7 12.2 270 12.8
2008-06-13 04:49:50 51°14.954 2°47.176 276.6 12.2 271 11.1
2008-06-13 04:50:50 51°14.96 2°46.855 275.5 12.3 272 9.4
2008-06-13 04:51:50 51°14.966 2°46.533 276.4 12.2 269 9.8
2008-06-13 04:52:50 51°14.976 2°46.214 276.4 12.1 275 11
2008-06-13 04:53:50 51°14.981 2°45.892 277 12.4 268 12.3
2008-06-13 04:54:50 51°14.989 2°45.568 275.7 12.3 272 14
2008-06-13 04:55:50 51°14.997 2°45.244 277.1 12.2 271 14.9
2008-06-13 04:56:50 51°15.007 2°44.916 276 12.3 275 16.5
2008-06-13 04:57:50 51°15.021 2°44.591 278.9 12.3 277 17
2008-06-13 04:58:50 51°15.041 2°44.269 278.6 12 278 18.2
2008-06-13 04:59:50 51°15.06 2°43.949 279.9 12 278 17.7
2008-06-13 05:00:50 51°15.099 2°43.638 288.9 12 285 15.9
2008-06-13 05:01:50 51°15.146 2°43.33 286.4 12 285 13.8
2008-06-13 05:02:50 51°15.186 2°43.021 286.7 11.7 283 13.9
2008-06-13 05:03:50 51°15.231 2°42.717 288.5 11.7 284 13.5
2008-06-13 05:04:50 51°15.279 2°42.414 287.4 11.7 284 13
2008-06-13 05:05:50 51°15.332 2°42.117 292.1 11.7 291 11.2
2008-06-13 05:06:50 51°15.404 2°41.826 298.3 11.6 297 10.9
2008-06-13 05:07:50 51°15.499 2°41.559 305.3 11.2 300 10.7
2008-06-13 05:08:50 51°15.59 2°41.29 299.7 11.3 297 10.8
2008-06-13 05:09:50 51°15.675 2°41.017 300.2 11.5 296 12.8
2008-06-13 05:10:50 51°15.76 2°40.741 300.4 11.9 296 14.9
2008-06-13 05:11:50 51°15.847 2°40.459 301.6 11.8 298 17.9
2008-06-13 05:12:50 51°15.933 2°40.175 301.1 12.1 295 20.2
2008-06-13 05:13:50 51°16.019 2°39.887 301.1 12 295 20.6
2008-06-13 05:14:50 51°16.107 2°39.601 301.1 11.9 296 20.4
2008-06-13 05:15:50 51°16.193 2°39.317 301.1 11.9 295 18.8
2008-06-13 05:16:50 51°16.28 2°39.028 301.3 12 296 14.5
2008-06-13 05:17:50 51°16.369 2°38.75 302.2 11.7 297 11.6
2008-06-13 05:18:50 51°16.46 2°38.483 300.4 11.3 307 9.9
2008-06-13 05:19:50 51°16.553 2°38.22 305 11.7 296 9.5
2008-06-13 05:20:50 51°16.649 2°37.97 305 10.5 302 19.5
2008-06-13 05:21:50 51°16.734 2°37.734 304 10.3 299 25.8
2008-06-13 05:22:50 51°16.812 2°37.555 321.2 5.9 326 26.9
2008-06-13 05:23:50 51°16.879 2°37.547 7.9 4 2 27.7
2008-06-13 05:24:50 51°16.948 2°37.528 351.2 4.3 352 28.1
2008-06-13 05:25:50 51°17 2°37.536 14.2 2.7 19 27.9
2008-06-13 05:26:50 51°17.036 2°37.557 14.3 1.7 25 27.9
2008-06-13 05:27:50 51°17.061 2°37.575 16 1.7 20 27.3
2008-06-13 05:28:50 51°17.083 2°37.593 19.2 1.6 33 27.1
2008-06-13 05:29:49 51°17.101 2°37.618 36.8 1.5 56 27
2008-06-13 05:30:49 51°17.138 2°37.652 1.9 3 357 27.3
2008-06-13 05:31:49 51°17.173 2°37.673 38.8 2.2 58 27.4
2008-06-13 05:32:49 51°17.176 2°37.7 63 0.7 115 27.9
2008-06-13 05:33:49 51°17.17 2°37.716 51.3 0.8 143 27.6
2008-06-13 05:34:49 51°17.159 2°37.727 48.2 0.7 150 27.3
2008-06-13 05:35:49 51°17.147 2°37.734 52.7 0.7 164 27.3
2008-06-13 05:36:49 51°17.132 2°37.739 61 0.8 171 27.5
2008-06-13 05:37:50 51°17.117 2°37.744 65.4 1.2 164 27.4
2008-06-13 05:38:50 51°17.102 2°37.749 70.3 1 172 27.1
2008-06-13 05:39:50 51°17.089 2°37.752 68.2 0.7 179 27.2
2008-06-13 05:40:50 51°17.075 2°37.756 67.4 0.9 175 27.4
2008-06-13 05:41:50 51°17.061 2°37.76 66.9 0.6 178 27.5
2008-06-13 05:42:49 51°17.048 2°37.762 67.9 1.1 165 27.6
2008-06-13 05:43:49 51°17.034 2°37.764 71.1 0.8 189 27.3
2008-06-13 05:44:49 51°17.02 2°37.765 72.4 0.5 188 27.4
2008-06-13 05:45:49 51°17.007 2°37.768 73.2 0.7 166 27.8
2008-06-13 05:46:50 51°16.993 2°37.771 73.2 0.9 160 27.8
2008-06-13 05:47:50 51°16.981 2°37.779 70.3 0.9 161 28.1
2008-06-13 05:48:49 51°16.969 2°37.785 66.9 1 155 28.1
2008-06-13 05:49:49 51°16.959 2°37.792 61.8 0.6 149 28.2
2008-06-13 05:50:49 51°16.949 2°37.799 62.2 0.6 170 28.2
2008-06-13 05:51:49 51°16.936 2°37.805 61.8 1 157 28.1
2008-06-13 05:52:49 51°16.923 2°37.808 61 0.9 175 28.3
2008-06-13 05:53:49 51°16.912 2°37.817 57.6 1.2 95 28
2008-06-13 05:54:50 51°16.934 2°37.843 6.2 2 8 28.1
2008-06-13 05:55:49 51°16.957 2°37.83 326.8 0.8 322 28.2
2008-06-13 05:56:50 51°16.959 2°37.818 303 0.3 222 27.8
2008-06-13 05:57:50 51°16.949 2°37.817 284.6 1 174 27.8
2008-06-13 05:58:50 51°16.939 2°37.824 265.1 1.1 164 28.4
2008-06-13 05:59:50 51°16.929 2°37.833 246 1.1 152 27.9
2008-06-13 06:00:50 51°16.919 2°37.841 230.9 0.6 170 28.2
2008-06-13 06:01:50 51°16.906 2°37.849 225.3 0.9 152 28.3
2008-06-13 06:02:50 51°16.894 2°37.858 218.9 1.1 163 28.2
2008-06-13 06:03:50 51°16.872 2°37.834 246.9 2.3 229 27.6
2008-06-13 06:04:50 51°16.867 2°37.77 285.1 2.7 281 27.9
2008-06-13 06:05:50 51°16.883 2°37.689 296.6 3.3 283 27.8
2008-06-13 06:06:50 51°16.895 2°37.639 299.4 1.3 297 28.6
2008-06-13 06:07:50 51°16.898 2°37.62 302.7 0.5 252 28.9
2008-06-13 06:08:50 51°16.894 2°37.617 297 0.4 170 28.7
2008-06-13 06:09:50 51°16.886 2°37.624 284 0.7 149 28.3
2008-06-13 06:10:50 51°16.877 2°37.637 264.8 1.2 150 28.2
2008-06-13 06:11:50 51°16.87 2°37.652 246 1 132 28.3
2008-06-13 06:12:50 51°16.863 2°37.666 225 0.8 128 28
2008-06-13 06:13:50 51°16.855 2°37.676 219.8 0.5 161 27.6
2008-06-13 06:14:50 51°16.845 2°37.683 222 0.5 180 27.4
2008-06-13 06:15:50 51°16.835 2°37.689 232.1 0.8 154 27.7
2008-06-13 06:16:50 51°16.827 2°37.694 239.9 0.5 153 27.8
2008-06-13 06:17:50 51°16.819 2°37.7 243.4 0.5 164 28
2008-06-13 06:18:50 51°16.811 2°37.708 246.6 0.5 142 27.8
2008-06-13 06:19:50 51°16.802 2°37.719 242.8 0.5 140 27.8
2008-06-13 06:20:50 51°16.792 2°37.728 240.7 0.5 149 27.5
2008-06-13 06:21:50 51°16.783 2°37.728 248.2 1.2 231 27.7
2008-06-13 06:22:50 51°16.786 2°37.682 297.7 2.3 304 28.2
2008-06-13 06:23:50 51°16.818 2°37.658 352.8 2.4 5 28.1
2008-06-13 06:24:50 51°16.863 2°37.682 11.4 3.1 19 28.1
2008-06-13 06:25:50 51°16.91 2°37.698 352.9 2.9 3 28.8
2008-06-13 06:26:50 51°16.957 2°37.688 342.1 3.1 350 29
2008-06-13 06:27:50 51°16.992 2°37.69 354.1 1.7 21 28.8
2008-06-13 06:28:50 51°17.006 2°37.708 8.9 1.1 59 28.8
2008-06-13 06:29:50 51°17.01 2°37.734 27 1.1 96 28.5
2008-06-13 06:30:50 51°17.006 2°37.759 53.6 0.7 108 28.6
2008-06-13 06:31:50 51°17.002 2°37.78 65.4 0.9 104 28.5
2008-06-13 06:32:50 51°16.998 2°37.799 69.3 0.6 100 28.1
2008-06-13 06:33:50 51°16.993 2°37.814 74 0.6 112 28.5
2008-06-13 06:34:49 51°16.988 2°37.833 78.7 1.4 99 28.6
2008-06-13 06:35:50 51°16.995 2°37.897 72.8 3.3 75 28
2008-06-13 06:36:50 51°17.017 2°37.993 64 4.2 66 28.2
2008-06-13 06:37:50 51°17.045 2°38.085 56.1 3 61 28.4
2008-06-13 06:38:50 51°17.061 2°38.142 52.2 1.9 60 27.9
2008-06-13 06:39:50 51°17.069 2°38.182 49 1.5 83 28.3
2008-06-13 06:40:49 51°17.072 2°38.214 47.8 1.2 87 27.8
2008-06-13 06:41:50 51°17.071 2°38.244 52.2 0.7 88 27.4
2008-06-13 06:42:50 51°17.067 2°38.269 58.8 0.8 104 27.2
2008-06-13 06:43:49 51°17.063 2°38.294 65.9 1 109 26.8
2008-06-13 06:44:50 51°17.058 2°38.319 66.9 1.1 117 26.9
2008-06-13 06:45:50 51°17.057 2°38.361 83.6 2.4 85 26.1
2008-06-13 06:46:50 51°17.042 2°38.436 129.6 3 126 24.9
2008-06-13 06:47:50 51°16.998 2°38.46 197.8 3.2 192 23.8
2008-06-13 06:48:50 51°16.979 2°38.393 277.3 3.4 293 23.5
2008-06-13 06:49:50 51°17.021 2°38.221 283.6 10.2 286 26.6
2008-06-13 06:50:50 51°17.081 2°37.942 287.3 11.6 291 28.2
2008-06-13 06:51:49 51°17.148 2°37.659 287.3 11.6 292 28.3
2008-06-13 06:52:47 51°17.212 2°37.385 287.8 11.5 291 28.5
2008-06-13 06:53:46 51°17.263 2°37.096 282.8 11.5 283 28.7
2008-06-13 06:54:46 51°17.304 2°36.83 282.2 8.3 282 27.9
2008-06-13 06:55:45 51°17.371 2°36.696 333.6 6.7 338 27.8
2008-06-13 06:56:47 51°17.428 2°36.573 284.1 4.8 290 24.6
2008-06-13 06:57:46 51°17.439 2°36.493 281.6 2.1 279 23.5
2008-06-13 06:58:46 51°17.44 2°36.467 268.9 0.7 204 23
2008-06-13 06:59:46 51°17.434 2°36.462 266.4 0.3 205 23.2
2008-06-13 07:00:46 51°17.429 2°36.45 273.4 1.1 239 23.1
2008-06-13 07:01:46 51°17.429 2°36.434 282.8 0.4 297 23.3
2008-06-13 07:02:46 51°17.429 2°36.435 286.1 0.3 103 23.3
2008-06-13 07:03:46 51°17.426 2°36.451 282.1 0.7 100 22.6
2008-06-13 07:04:46 51°17.419 2°36.444 245.5 1.6 218 23.9
2008-06-13 07:05:46 51°17.397 2°36.421 241.9 1.6 207 23.4
2008-06-13 07:06:46 51°17.391 2°36.396 275.1 1.1 259 21.7
2008-06-13 07:07:46 51°17.396 2°36.366 281.6 0.7 267 22.9
2008-06-13 07:08:46 51°17.399 2°36.37 289.3 0.4 95 22.8
2008-06-13 07:09:46 51°17.401 2°36.378 285.7 0.1 72 22.2
2008-06-13 07:10:46 51°17.401 2°36.387 282.4 0.5 139 21.1
2008-06-13 07:11:46 51°17.399 2°36.404 274.9 0.7 100 21.9
2008-06-13 07:12:46 51°17.395 2°36.42 266.3 0.3 134 23.8
2008-06-13 07:13:46 51°17.398 2°36.401 292.2 1.6 312 21.7
2008-06-13 07:14:46 51°17.409 2°36.354 277.2 1.6 269 22.1
2008-06-13 07:15:46 51°17.41 2°36.336 278.7 0.3 188 22.6
2008-06-13 07:16:46 51°17.41 2°36.345 279.1 0.7 62 22.6
2008-06-13 07:17:46 51°17.408 2°36.363 276.3 0.9 113 22.1
2008-06-13 07:18:46 51°17.405 2°36.388 270.8 1.1 100 20.6
2008-06-13 07:19:46 51°17.402 2°36.416 259.3 1.1 89 23.3
2008-06-13 07:20:46 51°17.397 2°36.431 255.7 1 237 23.6
2008-06-13 07:21:47 51°17.398 2°36.387 287.1 1.7 300 21.7
2008-06-13 07:22:46 51°17.407 2°36.375 293 0.2 319 21.9
2008-06-13 07:23:46 51°17.41 2°36.381 286.7 0.4 68 21.1
2008-06-13 07:24:46 51°17.41 2°36.396 283.2 0.6 92 22
2008-06-13 07:25:46 51°17.409 2°36.415 281.8 0.9 114 22.9
2008-06-13 07:26:46 51°17.406 2°36.442 272 1.1 98 24.5
2008-06-13 07:27:46 51°17.4 2°36.464 243.2 0.9 164 24.2
2008-06-13 07:28:46 51°17.361 2°36.444 210.4 4.4 204 24.9
2008-06-13 07:29:46 51°17.264 2°36.37 214 8.2 212 25.5
2008-06-13 07:30:46 51°17.125 2°36.222 217.8 11.2 220 26.1
2008-06-13 07:31:46 51°16.971 2°36.056 217.7 10.8 211 26.6
2008-06-13 07:32:46 51°16.822 2°35.876 220.2 11.3 223 28.4
2008-06-13 07:33:46 51°16.676 2°35.692 220.9 11.2 220 27.8
2008-06-13 07:34:46 51°16.53 2°35.5 220.2 11.5 218 28
2008-06-13 07:35:46 51°16.386 2°35.313 220.5 11.1 216 27.6
2008-06-13 07:36:46 51°16.241 2°35.129 221.6 11 211 26.8
2008-06-13 07:37:46 51°16.101 2°34.941 219.3 11.5 217 27.9
2008-06-13 07:38:46 51°15.987 2°34.773 231.9 6.2 240 27.3
2008-06-13 07:39:46 51°16.01 2°34.666 323.6 5.1 335 26.5
2008-06-13 07:40:46 51°16.097 2°34.708 36.1 6.5 47 25.9
2008-06-13 07:41:47 51°16.156 2°34.879 44 8.2 42 27.1
2008-06-13 07:42:46 51°16.291 2°34.893 348.3 9.5 354 24.2
2008-06-13 07:43:46 51°16.475 2°34.857 346.5 11.5 346 17
2008-06-13 07:44:46 51°16.66 2°34.764 336.9 11.8 340 14.1
2008-06-13 07:45:46 51°16.845 2°34.673 337.9 11.6 344 13.5
2008-06-13 07:46:46 51°17.028 2°34.587 337.1 11.4 343 12.8
2008-06-13 07:47:46 51°17.212 2°34.506 338.9 11.3 347 11.3
2008-06-13 07:48:46 51°17.397 2°34.431 337.2 11.7 343 19.5
2008-06-13 07:49:46 51°17.589 2°34.338 335.6 12.3 342 26.1
2008-06-13 07:50:46 51°17.783 2°34.235 336.2 12.1 342 28.6
2008-06-13 07:51:46 51°17.971 2°34.116 330.2 11.8 335 30.1
2008-06-13 07:52:46 51°18.15 2°33.989 330.2 12.2 335 27.6
2008-06-13 07:53:46 51°18.333 2°33.86 329.6 12 337 24.8
2008-06-13 07:54:46 51°18.514 2°33.732 330.6 11.3 337 17.9
2008-06-13 07:55:46 51°18.693 2°33.605 329.7 11.8 336 16.9
2008-06-13 07:56:46 51°18.874 2°33.475 330.6 12.1 337 26.1
2008-06-13 07:57:46 51°19.056 2°33.34 328.8 12.1 335 28
2008-06-13 07:58:46 51°19.24 2°33.207 329.8 12.3 335 31.5
2008-06-13 07:59:46 51°19.421 2°33.075 331.4 11.8 334 31.6
2008-06-13 08:00:46 51°19.604 2°32.935 329.4 12.1 330 33
2008-06-13 08:01:46 51°19.724 2°32.694 295.8 11.6 299 32.4
2008-06-13 08:02:46 51°19.816 2°32.42 293.7 11.7 297 31.9
2008-06-13 08:03:46 51°19.912 2°32.149 297.4 11.9 305 32.2
2008-06-13 08:04:46 51°20.017 2°31.887 299.6 11.8 306 31.8
2008-06-13 08:05:46 51°20.127 2°31.635 300.7 11.5 306 31
2008-06-13 08:06:46 51°20.233 2°31.381 300.8 11.4 306 24.3
2008-06-13 08:07:46 51°20.348 2°31.145 303.8 11.2 310 19.1
2008-06-13 08:08:46 51°20.467 2°30.915 306.4 11.3 310 14.9
2008-06-13 08:09:46 51°20.615 2°30.736 319.5 11.2 328 13.1
2008-06-13 08:10:46 51°20.774 2°30.574 321.6 11.7 328 22.9
2008-06-13 08:11:46 51°20.944 2°30.413 324.6 12.3 333 30.2
2008-06-13 08:12:46 51°21.136 2°30.307 339.4 12.5 346 28.7
2008-06-13 08:13:47 51°21.338 2°30.251 346.6 11.7 352 25.9
2008-06-13 08:14:46 51°21.534 2°30.197 343.2 12.6 350 30.5
2008-06-13 08:15:46 51°21.734 2°30.129 342.7 12.4 348 32.3
2008-06-13 08:16:46 51°21.934 2°30.06 344 12.1 351 33.7
2008-06-13 08:17:46 51°22.134 2°30.004 346.8 11.7 349 33.2
2008-06-13 08:18:46 51°22.332 2°29.96 348.2 12 354 33.5
2008-06-13 08:19:46 51°22.533 2°29.917 348.5 12.4 353 34.3
2008-06-13 08:20:46 51°22.732 2°29.872 347.6 12.5 350 35.6
2008-06-13 08:21:46 51°22.936 2°29.83 349.2 12.4 356 34.7
2008-06-13 08:22:46 51°23.143 2°29.795 347.5 12.3 352 34.9
2008-06-13 08:23:47 51°23.344 2°29.748 347.1 10.7 352 34.6
2008-06-13 08:24:46 51°23.499 2°29.72 347.2 7.2 357 35
2008-06-13 08:25:46 51°23.578 2°29.712 345.8 3.6 6 35.2
2008-06-13 08:26:46 51°23.629 2°29.736 347.4 3.1 9 35.4
2008-06-13 08:27:46 51°23.679 2°29.719 315.5 2.6 343 34.8
2008-06-13 08:28:46 51°23.704 2°29.714 293.9 1.5 22 34.9
2008-06-13 08:29:46 51°23.714 2°29.735 274.9 1 59 34.9
2008-06-13 08:30:46 51°23.721 2°29.758 259.7 1 78 34.7
2008-06-13 08:31:46 51°23.727 2°29.782 249.8 1 91 32.1
2008-06-13 08:32:46 51°23.73 2°29.802 243.8 0.7 85 34.9
2008-06-13 08:33:46 51°23.733 2°29.816 246.5 0.6 93 35.3
2008-06-13 08:34:46 51°23.734 2°29.829 251.5 0.5 92 35.4
2008-06-13 08:35:46 51°23.738 2°29.838 257 0.3 65 35.5
2008-06-13 08:36:46 51°23.743 2°29.846 263.4 0.4 72 35.4
2008-06-13 08:37:46 51°23.749 2°29.838 263.9 1.6 299 35.5
2008-06-13 08:38:46 51°23.738 2°29.804 239.1 1.6 219 31.6
2008-06-13 08:39:46 51°23.732 2°29.781 247.2 0.5 236 34
2008-06-13 08:40:46 51°23.732 2°29.778 248.8 0.1 26 34.6
2008-06-13 08:41:46 51°23.733 2°29.786 248.8 0.4 67 33.3
2008-06-13 08:42:46 51°23.735 2°29.799 254.2 1.1 129 33.9
2008-06-13 08:43:46 51°23.74 2°29.814 256.5 0.8 74 31.2
2008-06-13 08:44:46 51°23.744 2°29.834 255.4 0.8 82 35.5
2008-06-13 08:45:46 51°23.749 2°29.854 258.5 0.7 62 34.9
2008-06-13 08:46:46 51°23.753 2°29.87 261.2 0.3 272 34.9
2008-06-13 08:47:46 51°23.744 2°29.824 236.6 1.8 230 34.5
2008-06-13 08:48:46 51°23.724 2°29.796 242.4 1.4 230 34.8
2008-06-13 08:49:46 51°23.725 2°29.777 260.9 0.5 336 31.8
2008-06-13 08:50:46 51°23.73 2°29.78 262.2 0.4 44 34.3
2008-06-13 08:51:46 51°23.735 2°29.79 260.6 0.6 65 33.6
2008-06-13 08:52:46 51°23.742 2°29.807 261.6 0.9 40 31.1
2008-06-13 08:53:46 51°23.747 2°29.827 262.7 0.8 69 35
2008-06-13 08:54:46 51°23.754 2°29.848 263.8 0.9 87 34.9
2008-06-13 08:55:46 51°23.76 2°29.87 267.2 0.7 88 35.5
2008-06-13 08:56:46 51°23.77 2°29.852 278.1 2.8 292 35.3
2008-06-13 08:57:46 51°23.83 2°29.745 307.2 8.1 313 34.7
2008-06-13 08:58:46 51°23.942 2°29.537 305.9 11.3 309 34.9
2008-06-13 08:59:46 51°24.079 2°29.324 319.9 11.6 325 35.1
2008-06-13 09:00:46 51°24.247 2°29.151 322.6 11.9 327 35.5
2008-06-13 09:01:47 51°24.415 2°28.984 322.7 10.5 331 34.7
2008-06-13 09:02:46 51°24.52 2°28.894 323.4 5.7 334 34.4
2008-06-13 09:03:46 51°24.574 2°28.809 291.9 4.3 306 32.9
2008-06-13 09:04:46 51°24.623 2°28.727 311 4.4 324 33.9
2008-06-13 09:05:46 51°24.688 2°28.67 320.9 3.8 335 32.6
2008-06-13 09:06:46 51°24.732 2°28.648 320.6 2.1 348 30
2008-06-13 09:07:46 51°24.764 2°28.644 322.1 1.8 3 28.7
2008-06-13 09:08:46 51°24.79 2°28.648 320.7 1.4 2 29.5
2008-06-13 09:09:46 51°24.813 2°28.656 312.8 1.6 20 27.1
2008-06-13 09:10:46 51°24.831 2°28.667 309.2 1.2 19 27.1
2008-06-13 09:11:46 51°24.846 2°28.673 311.2 1.2 14 25.9
2008-06-13 09:12:46 51°24.865 2°28.683 319 1.1 20 26
2008-06-13 09:13:46 51°24.888 2°28.688 323.6 2.3 347 25.5
2008-06-13 09:14:46 51°24.948 2°28.65 319.6 5 344 21.5
2008-06-13 09:15:46 51°25.024 2°28.58 316.2 5.5 333 16.7
2008-06-13 09:16:46 51°25.099 2°28.504 316.5 5 327 14.1
2008-06-13 09:17:46 51°25.176 2°28.437 317.9 5.5 333 14.2
2008-06-13 09:18:46 51°25.261 2°28.428 19.9 5.8 35 14.1
2008-06-13 09:19:46 51°25.275 2°28.573 128.8 5.9 119 14
2008-06-13 09:20:47 51°25.167 2°28.597 191.5 7.8 171 -999
2008-06-13 09:21:46 51°25.037 2°28.72 153.8 10.5 144 19.5
2008-06-13 09:22:46 51°24.891 2°28.807 174.1 7.3 164 28.5
2008-06-13 09:23:46 51°24.813 2°28.805 211.8 3.4 204 30.9
2008-06-13 09:24:46 51°24.763 2°28.764 222.7 3.2 221 33.4
2008-06-13 09:25:46 51°24.748 2°28.713 266.3 1.5 285 31.2
2008-06-13 09:26:46 51°24.757 2°28.694 277.6 0.4 304 30.6
2008-06-13 09:27:46 51°24.766 2°28.706 284.4 0.5 61 29.6
2008-06-13 09:28:46 51°24.771 2°28.716 289.6 0.7 67 29.7
2008-06-13 09:29:46 51°24.779 2°28.738 294 0.9 64 30.5
2008-06-13 09:30:46 51°24.783 2°28.762 291.3 0.9 86 31.5
2008-06-13 09:31:46 51°24.789 2°28.779 268.6 0.2 345 31.2
2008-06-13 09:32:46 51°24.775 2°28.746 230.7 1.9 219 30.7
2008-06-13 09:33:46 51°24.765 2°28.713 263.1 1 255 30.3
2008-06-13 09:34:46 51°24.772 2°28.706 275.6 0.4 -999 29.8
2008-06-13 09:35:46 51°24.779 2°28.715 287.2 0.6 60 30.6
2008-06-13 09:36:46 51°24.786 2°28.733 294 1.1 65 29.4
2008-06-13 09:37:46 51°24.791 2°28.764 292.5 1.5 76 30.8
2008-06-13 09:38:46 51°24.794 2°28.781 260.5 0.2 232 30.7
2008-06-13 09:39:46 51°24.777 2°28.747 235.1 2.1 230 31.1
2008-06-13 09:40:46 51°24.763 2°28.709 246.3 1.3 252 30.1
2008-06-13 09:41:46 51°24.764 2°28.69 267.6 0.5 324 29.7
2008-06-13 09:42:46 51°24.772 2°28.697 283.1 0.8 43 29.2
2008-06-13 09:43:46 51°24.777 2°28.712 288.4 0.9 59 30.1
2008-06-13 09:44:46 51°24.782 2°28.737 285.9 1 76 30.6
2008-06-13 09:45:46 51°24.786 2°28.764 276.9 1.4 65 29.9
2008-06-13 09:46:46 51°24.789 2°28.793 270.5 1 73 31.2
2008-06-13 09:47:46 51°24.786 2°28.785 245.8 2.2 243 31
2008-06-13 09:48:46 51°24.756 2°28.735 231.1 2.5 222 32.5
2008-06-13 09:49:46 51°24.749 2°28.694 265.4 1.1 291 30.3
2008-06-13 09:50:46 51°24.756 2°28.689 286.6 0.7 18 30.6
2008-06-13 09:51:47 51°24.764 2°28.698 296.8 0.8 44 29.3
2008-06-13 09:52:46 51°24.771 2°28.714 300.9 0.8 68 29.5
2008-06-13 09:53:46 51°24.776 2°28.737 300.7 0.9 83 30.4
2008-06-13 09:54:46 51°24.779 2°28.761 297.6 1.2 75 31
2008-06-13 09:55:46 51°24.782 2°28.789 295.4 1.4 74 31.6
2008-06-13 09:56:46 51°24.779 2°28.765 235.3 3.4 231 31
2008-06-13 09:57:46 51°24.686 2°28.801 158.1 8.7 151 33
2008-06-13 09:58:46 51°24.557 2°28.963 138.3 10.2 132 33.9
2008-06-13 09:59:45 51°24.428 2°29.138 152.1 11.1 148 34.9
2008-06-13 10:00:46 51°24.262 2°29.312 150.5 12 149 35.6
2008-06-13 10:01:46 51°24.095 2°29.488 150.7 12.3 148 34.4
2008-06-13 10:02:45 51°23.935 2°29.661 150.2 11.8 149 34.8
2008-06-13 10:03:46 51°23.766 2°29.846 149.6 12.1 142 34.5
2008-06-13 10:04:46 51°23.592 2°29.99 171.6 11.2 172 34.2
2008-06-13 10:05:46 51°23.402 2°30.014 179.3 11.9 177 34.2
2008-06-13 10:06:46 51°23.21 2°30.043 178.7 11.2 174 33.7
2008-06-13 10:07:46 51°23.017 2°30.072 176.5 11.5 167 34.1
2008-06-13 10:08:46 51°22.825 2°30.095 178.7 12.2 177 34.2
2008-06-13 10:09:46 51°22.632 2°30.122 180.2 12.4 176 32.2
2008-06-13 10:10:46 51°22.44 2°30.153 179.4 11.3 173 33.5
2008-06-13 10:11:45 51°22.251 2°30.18 179.5 11.7 173 33.1
2008-06-13 10:12:46 51°22.057 2°30.204 180.7 11.6 174 33.2
2008-06-13 10:13:46 51°21.865 2°30.234 177.8 11.9 173 32.9
2008-06-13 10:14:46 51°21.672 2°30.257 177 11.3 174 32.5
2008-06-13 10:15:45 51°21.483 2°30.277 182 11.7 177 26
2008-06-13 10:16:46 51°21.293 2°30.309 173.6 10.9 169 23.2
2008-06-13 10:17:46 51°21.128 2°30.482 144.6 12.7 134 26.3
2008-06-13 10:18:46 51°20.981 2°30.698 142.5 12.1 135 25.6
2008-06-13 10:19:45 51°20.833 2°30.916 145 12.1 141 12.9
2008-06-13 10:20:46 51°20.683 2°31.147 140 12.2 131 13.2
2008-06-13 10:21:46 51°20.533 2°31.374 138.5 12.8 132 17.3
2008-06-13 10:22:46 51°20.382 2°31.599 139.3 12 139 25.2
2008-06-13 10:23:46 51°20.231 2°31.825 141.4 12.7 138 30.8
2008-06-13 10:24:46 51°20.085 2°32.057 133.1 12.6 130 31.6
2008-06-13 10:25:46 51°19.956 2°32.309 131.8 12.1 133 31.1
2008-06-13 10:26:46 51°19.828 2°32.565 126 12.3 123 31.7
2008-06-13 10:27:46 51°19.702 2°32.825 131.5 12.4 127 31.5
2008-06-13 10:28:46 51°19.576 2°33.081 132.3 12.4 123 31.5
2008-06-13 10:29:46 51°19.449 2°33.339 131.1 12.2 128 30.8
2008-06-13 10:30:45 51°19.324 2°33.592 131.8 12.3 132 28.9
2008-06-13 10:31:46 51°19.193 2°33.854 131.1 12.1 127 25
2008-06-13 10:32:46 51°19.066 2°34.112 130.1 12.6 125 15.5
2008-06-13 10:33:45 51°18.939 2°34.363 132.7 12.6 130 17.8
2008-06-13 10:34:46 51°18.804 2°34.627 134.3 12.6 130 22.3
2008-06-13 10:35:45 51°18.672 2°34.883 134 12.8 129 22.2
2008-06-13 10:36:46 51°18.539 2°35.145 130.6 12.7 124 24.4
2008-06-13 10:37:46 51°18.406 2°35.407 129.7 12.7 124 28.3
2008-06-13 10:38:46 51°18.273 2°35.667 130.2 12.6 122 24.9
2008-06-13 10:39:46 51°18.138 2°35.918 132.6 12.3 129 17.6
2008-06-13 10:40:46 51°17.985 2°36.131 143.4 12.1 144 13.7
2008-06-13 10:41:46 51°17.81 2°36.279 165 11.1 177 15
2008-06-13 10:42:46 51°17.613 2°36.312 174.5 11.7 179 17.2
2008-06-13 10:43:46 51°17.456 2°36.338 166.9 6.1 165 20.2
2008-06-13 10:44:45 51°17.405 2°36.393 152.5 2.2 140 20.1
2008-06-13 10:45:46 51°17.388 2°36.423 176.7 1 125 22.8
2008-06-13 10:46:45 51°17.384 2°36.438 191.3 0.5 124 23.2
2008-06-13 10:47:46 51°17.374 2°36.429 235.7 1.6 254 22.7
2008-06-13 10:48:46 51°17.385 2°36.383 288.3 1.8 314 22.2
2008-06-13 10:49:46 51°17.405 2°36.366 304.5 1 353 21.1
2008-06-13 10:50:46 51°17.42 2°36.374 321.7 1.1 47 20.7
2008-06-13 10:51:46 51°17.428 2°36.389 334.9 1 50 21.3
2008-06-13 10:52:45 51°17.436 2°36.407 343.8 0.8 63 21.7
2008-06-13 10:53:46 51°17.449 2°36.422 335.3 1.6 18 21.8
2008-06-13 10:54:46 51°17.475 2°36.406 288.5 2 314 20.1
2008-06-13 10:55:46 51°17.474 2°36.361 224.2 1.8 219 20.9
2008-06-13 10:56:46 51°17.436 2°36.34 194.3 3 194 20.5
2008-06-13 10:57:46 51°17.402 2°36.336 187.1 1.2 179 21.2
2008-06-13 10:58:46 51°17.394 2°36.35 175.2 0.4 111 21.4
2008-06-13 10:59:46 51°17.397 2°36.367 166.8 0.8 56 21.9
2008-06-13 11:00:46 51°17.405 2°36.383 157.4 0.5 27 19.8
2008-06-13 11:01:46 51°17.415 2°36.398 146.5 0.5 40 21.3
2008-06-13 11:02:46 51°17.424 2°36.414 136.6 0.5 49 22
2008-06-13 11:03:46 51°17.432 2°36.431 129.3 0.8 54 22
2008-06-13 11:04:46 51°17.434 2°36.457 144.6 1.4 95 22
2008-06-13 11:05:46 51°17.419 2°36.473 193.9 1.2 178 22.7
2008-06-13 11:06:46 51°17.399 2°36.448 226.7 2.1 232 22.6
2008-06-13 11:07:46 51°17.382 2°36.394 252.2 2.2 271 21.8
2008-06-13 11:08:46 51°17.39 2°36.358 278.7 0.7 309 21.5
2008-06-13 11:09:46 51°17.399 2°36.365 297.1 0.6 44 21.3
2008-06-13 11:10:46 51°17.406 2°36.379 300.2 0.6 60 5.1
2008-06-13 11:11:46 51°17.413 2°36.397 302.2 0.9 56 20.7
2008-06-13 11:12:46 51°17.419 2°36.414 306.4 0.5 84 21.8
2008-06-13 11:13:46 51°17.425 2°36.434 308.9 0.8 72 22.1
2008-06-13 11:14:46 51°17.43 2°36.452 309.7 0.4 57 21.9
2008-06-13 11:15:45 51°17.462 2°36.448 352.1 4 2 21.3
2008-06-13 11:16:46 51°17.519 2°36.554 87.4 6.8 87 22.3
2008-06-13 11:17:45 51°17.466 2°36.775 117.3 11.5 119 25.6
2008-06-13 11:18:46 51°17.382 2°37.069 118.5 12.1 117 27.6
2008-06-13 11:19:46 51°17.299 2°37.326 119.6 7.9 113 27.5
2008-06-13 11:20:46 51°17.276 2°37.467 104.8 4.3 99 27.1
2008-06-13 11:21:45 51°17.242 2°37.549 150.6 3.8 139 27.3
2008-06-13 11:22:46 51°17.195 2°37.618 147.6 3.9 129 27.4
2008-06-13 11:23:46 51°17.16 2°37.7 131.4 3.5 127 27
2008-06-13 11:24:46 51°17.129 2°37.752 168.3 2.1 154 27.2
2008-06-13 11:25:46 51°17.107 2°37.768 178.5 1.1 153 27
2008-06-13 11:26:45 51°17.094 2°37.781 177.6 0.7 156 26.9
2008-06-13 11:27:46 51°17.084 2°37.794 178.8 0.7 133 26.8
2008-06-13 11:28:46 51°17.076 2°37.804 182.1 0.6 144 26.9
2008-06-13 11:29:46 51°17.07 2°37.812 187.9 0.5 136 26.9
2008-06-13 11:30:46 51°17.064 2°37.819 192.8 0.4 138 27
2008-06-13 11:31:46 51°17.06 2°37.823 199.5 0.1 191 26.9
2008-06-13 11:32:46 51°17.057 2°37.828 202.2 0.1 165 26.9
2008-06-13 11:33:46 51°17.055 2°37.831 208.2 0.1 129 26.7
2008-06-13 11:34:46 51°17.054 2°37.835 213 0.1 33 26.8
2008-06-13 11:35:46 51°17.055 2°37.84 218.9 0.2 72 27.1
2008-06-13 11:36:46 51°17.054 2°37.843 224.2 0.2 123 27
2008-06-13 11:37:46 51°17.055 2°37.846 227.5 0.2 81 26.6
2008-06-13 11:38:46 51°17.056 2°37.85 232.4 0.2 93 26.7
2008-06-13 11:39:46 51°17.057 2°37.854 236.8 0.2 82 26.8
2008-06-13 11:40:46 51°17.058 2°37.858 240.1 0.3 1 26.7
2008-06-13 11:41:46 51°17.058 2°37.861 246.6 0.1 97 26.7
2008-06-13 11:42:45 51°17.059 2°37.865 247.3 0.4 348 26.6
2008-06-13 11:43:46 51°17.06 2°37.869 249.6 0.2 108 26.8
2008-06-13 11:44:46 51°17.061 2°37.875 249.6 0.2 35 26.6
2008-06-13 11:45:46 51°17.063 2°37.881 248.3 0.2 66 26.6
2008-06-13 11:46:46 51°17.065 2°37.889 245.2 0.4 99 26.7
2008-06-13 11:47:46 51°17.067 2°37.897 238.5 0.4 96 26.6
2008-06-13 11:48:46 51°17.068 2°37.905 227.2 0.4 104 26.8
2008-06-13 11:49:45 51°17.069 2°37.911 217.8 0.2 351 26.3
2008-06-13 11:50:46 51°17.07 2°37.917 214.3 0.3 94 26.6
2008-06-13 11:51:46 51°17.07 2°37.923 209.8 0.1 77 26.6
2008-06-13 11:52:46 51°17.069 2°37.928 203.3 0.3 108 26.7
2008-06-13 11:53:46 51°17.067 2°37.934 200.7 0.3 92 26.6
2008-06-13 11:54:46 51°17.067 2°37.938 200.5 0.1 69 26.7
2008-06-13 11:55:46 51°17.065 2°37.941 202.5 0.1 177 26.6
2008-06-13 11:56:46 51°17.064 2°37.943 205.3 -999 135 26.7
2008-06-13 11:57:46 51°17.062 2°37.945 207.4 0.1 144 26.7
2008-06-13 11:58:46 51°17.061 2°37.945 209.7 0.3 132 26.6
2008-06-13 11:59:46 51°17.06 2°37.947 209.8 0.3 151 26.5
2008-06-13 12:00:46 51°17.059 2°37.949 212 0.1 107 26.5
2008-06-13 12:01:46 51°17.058 2°37.949 213.4 0.3 167 26.5
2008-06-13 12:02:46 51°17.056 2°37.95 212.8 -999 170 26.6
2008-06-13 12:03:46 51°17.055 2°37.951 212.3 0.1 280 26.5
2008-06-13 12:04:46 51°17.053 2°37.952 216 0.4 135 26.6
2008-06-13 12:05:46 51°17.051 2°37.95 220.9 0.1 144 26.5
2008-06-13 12:06:46 51°17.049 2°37.947 228 0.1 270 26.6
2008-06-13 12:07:46 51°17.047 2°37.944 230.3 0.2 278 26.5
2008-06-13 12:08:46 51°17.046 2°37.943 232.2 0.1 173 26.5
2008-06-13 12:09:46 51°17.045 2°37.94 235.1 0.1 200 26.7
2008-06-13 12:10:46 51°17.044 2°37.938 236.1 0.1 255 26.5
2008-06-13 12:11:46 51°17.043 2°37.936 233.3 0.3 307 26.5
2008-06-13 12:12:46 51°17.042 2°37.935 231.6 0.3 148 26.4
2008-06-13 12:13:46 51°17.04 2°37.934 227.1 0.1 156 26.4
2008-06-13 12:14:46 51°17.039 2°37.932 222.1 0.1 240 26.4
2008-06-13 12:15:46 51°17.037 2°37.931 215.4 0.4 196 26.5
2008-06-13 12:16:46 51°17.026 2°37.887 262.6 2.4 276 26.3
2008-06-13 12:17:46 51°17.037 2°37.831 306.3 2.1 306 26.5
2008-06-13 12:18:46 51°17.063 2°37.795 332.4 2 332 26.4
2008-06-13 12:19:46 51°17.093 2°37.763 330.9 2.1 328 26.3
2008-06-13 12:20:46 51°17.124 2°37.734 336.8 2.1 339 26.5
2008-06-13 12:21:46 51°17.156 2°37.719 357 1.9 355 26.5
2008-06-13 12:22:46 51°17.185 2°37.721 23.1 1.5 13 27
2008-06-13 12:23:46 51°17.203 2°37.743 64.4 1.5 65 27.1
2008-06-13 12:24:46 51°17.211 2°37.786 88.2 2 88 26.7
2008-06-13 12:25:46 51°17.209 2°37.845 95.2 2.2 91 26.9
2008-06-13 12:26:46 51°17.206 2°37.885 96.4 1.2 114 26.7
2008-06-13 12:27:46 51°17.204 2°37.912 99.6 0.9 104 26.4
2008-06-13 12:28:46 51°17.2 2°37.933 105.9 0.7 114 26.4
2008-06-13 12:29:46 51°17.194 2°37.948 117.4 0.6 121 26.4
2008-06-13 12:30:46 51°17.187 2°37.958 127.7 0.5 130 26.5
2008-06-13 12:31:46 51°17.179 2°37.963 137 0.5 154 26.5
2008-06-13 12:32:46 51°17.171 2°37.964 145.3 0.5 175 26.3
2008-06-13 12:33:46 51°17.163 2°37.965 150.3 0.5 196 26.2
2008-06-13 12:34:46 51°17.127 2°38.007 125.8 5.9 128 26.3
2008-06-13 12:35:46 51°17.037 2°38.196 125.1 11 131 25.6
2008-06-13 12:36:46 51°16.914 2°38.44 125.4 12 131 17.3
2008-06-13 12:37:46 51°16.797 2°38.68 125.1 11 125 9.1
2008-06-13 12:38:46 51°16.685 2°38.923 122.8 11.1 122 10.3
2008-06-13 12:39:46 51°16.56 2°39.162 125.5 12 122 12.4
2008-06-13 12:40:46 51°16.436 2°39.404 125.1 11.7 127 17
2008-06-13 12:41:46 51°16.314 2°39.654 123.3 11.9 121 19.7
2008-06-13 12:42:46 51°16.195 2°39.902 124.6 11.9 127 20.5
2008-06-13 12:43:46 51°16.078 2°40.154 123.4 11.9 125 20.3
2008-06-13 12:44:46 51°15.956 2°40.406 124.7 12 129 18.8
2008-06-13 12:45:46 51°15.833 2°40.656 127.7 12.2 130 16.2
2008-06-13 12:46:46 51°15.714 2°40.902 123.5 11.6 124 13.4
2008-06-13 12:47:46 51°15.595 2°41.143 126.2 11.8 124 11.1
2008-06-13 12:48:46 51°15.476 2°41.385 124.6 11.7 127 10.2
2008-06-13 12:49:46 51°15.362 2°41.634 120 11.9 118 10.7
2008-06-13 12:50:46 51°15.29 2°41.914 104.7 11.3 107 11
2008-06-13 12:51:46 51°15.261 2°42.213 92.9 11.5 95 11.1
2008-06-13 12:52:46 51°15.247 2°42.518 92.1 11.6 95 13.1
2008-06-13 12:53:46 51°15.229 2°42.826 94.3 11.8 97 11.5
2008-06-13 12:54:46 51°15.214 2°43.136 92.6 11.7 94 13.2
2008-06-13 12:55:46 51°15.201 2°43.446 95.7 11.8 94 12.8
2008-06-13 12:56:46 51°15.183 2°43.753 92.6 11.7 94 14.3
2008-06-13 12:57:46 51°15.169 2°44.06 93.2 11.6 92 16.6
2008-06-13 12:58:46 51°15.15 2°44.364 93.6 11.3 95 18
2008-06-13 12:59:46 51°15.131 2°44.667 93.7 11.3 96 17.4
2008-06-13 13:00:46 51°15.112 2°44.97 93.5 11.4 99 16.2
2008-06-13 13:01:46 51°15.092 2°45.272 95.3 11.5 96 15.5
2008-06-13 13:02:46 51°15.072 2°45.572 95.6 11.4 96 14.2
2008-06-13 13:03:46 51°15.05 2°45.873 93.3 11.4 96 12.9
2008-06-13 13:04:46 51°15.027 2°46.173 94.1 11.5 101 11
2008-06-13 13:05:46 51°15.006 2°46.471 95.7 11.4 97 9.6
2008-06-13 13:06:46 51°14.985 2°46.769 93.9 11.2 97 8.9
2008-06-13 13:07:46 51°14.964 2°47.065 93.4 11.1 97 9.1
2008-06-13 13:08:46 51°14.944 2°47.363 94.1 11.4 98 11
2008-06-13 13:09:46 51°14.924 2°47.662 93.5 11.4 96 12.6
2008-06-13 13:10:46 51°14.904 2°47.962 94.2 11.4 96 12.6
2008-06-13 13:11:46 51°14.883 2°48.261 93.3 11.4 100 11.9
2008-06-13 13:12:46 51°14.861 2°48.56 95.1 11.5 102 11.8
2008-06-13 13:13:46 51°14.841 2°48.86 90.8 11.1 93 12
2008-06-13 13:14:46 51°14.827 2°49.162 92.8 11.7 91 12.1
2008-06-13 13:15:46 51°14.811 2°49.464 91.5 11.3 97 12.3
2008-06-13 13:16:46 51°14.795 2°49.767 90.7 11.4 95 11.8
2008-06-13 13:17:46 51°14.783 2°50.069 91.9 11.5 95 11.6
2008-06-13 13:18:46 51°14.771 2°50.37 91.2 11.3 92 11.5
2008-06-13 13:19:46 51°14.753 2°50.67 93.2 11.5 98 11.1
2008-06-13 13:20:46 51°14.732 2°50.97 93.2 11.4 96 10.7
2008-06-13 13:21:46 51°14.717 2°51.268 89.9 11.1 91 10.2
2008-06-13 13:22:46 51°14.701 2°51.567 92.8 11.3 98 9.8
2008-06-13 13:23:46 51°14.685 2°51.864 91.4 11.3 94 9.4
2008-06-13 13:24:46 51°14.668 2°52.162 91.9 11.3 94 9.2
2008-06-13 13:25:46 51°14.652 2°52.461 91.4 11.2 93 9.1
2008-06-13 13:26:46 51°14.643 2°52.761 91.6 11.4 95 8.7
2008-06-13 13:27:46 51°14.628 2°53.058 95.4 11.1 97 8.4
2008-06-13 13:28:46 51°14.598 2°53.352 95.8 11.2 100 7.9
2008-06-13 13:29:46 51°14.554 2°53.643 97.9 11.3 102 9.6
2008-06-13 13:30:46 51°14.508 2°53.937 100.1 11.6 98 9.5
2008-06-13 13:31:46 51°14.492 2°54.236 90.6 11.5 91 10.6
2008-06-13 13:32:46 51°14.466 2°54.539 94.5 11.5 96 10.1
2008-06-13 13:33:46 51°14.41 2°54.833 107.5 11.6 111 9.7
2008-06-13 13:34:47 51°14.328 2°55.118 121.6 11.8 123 -999
2008-06-13 13:35:50 51°14.192 2°55.345 145.1 9.9 144 9.4